createdAt,value
2023-05-19T00:01:37.634Z,8.00
2023-05-19T00:04:05.792Z,8.00
2023-05-19T00:06:36.400Z,8.00
2023-05-19T00:09:09.633Z,7.80
2023-05-19T00:11:39.102Z,7.70
2023-05-19T00:14:10.698Z,7.60
2023-05-19T00:16:43.211Z,7.60
2023-05-19T00:19:10.796Z,7.50
2023-05-19T00:21:40.983Z,7.50
2023-05-19T00:24:08.444Z,7.40
2023-05-19T00:26:35.614Z,7.30
2023-05-19T00:29:06.047Z,7.30
2023-05-19T00:31:34.251Z,7.20
2023-05-19T00:34:02.025Z,7.20
2023-05-19T00:36:29.295Z,7.20
2023-05-19T00:38:56.601Z,7.20
2023-05-19T00:41:23.866Z,7.10
2023-05-19T00:43:51.366Z,7.10
2023-05-19T00:46:19.763Z,7.10
2023-05-19T00:48:46.904Z,7.10
2023-05-19T00:51:16.943Z,7.10
2023-05-19T00:53:49.367Z,6.90
2023-05-19T00:56:17.606Z,6.80
2023-05-19T00:58:45.447Z,6.80
2023-05-19T01:01:17.083Z,6.80
2023-05-19T01:03:45.226Z,6.90
2023-05-19T01:06:12.789Z,6.80
2023-05-19T01:08:40.164Z,6.80
2023-05-19T01:11:08.407Z,6.80
2023-05-19T01:13:37.176Z,6.60
2023-05-19T01:16:14.445Z,6.50
2023-05-19T01:19:02.090Z,6.40
2023-05-19T01:21:56.512Z,6.30
2023-05-19T01:25:05.316Z,6.30
2023-05-19T01:28:18.323Z,6.20
2023-05-19T01:30:49.235Z,6.20
2023-05-19T01:33:18.072Z,6.20
2023-05-19T01:35:47.754Z,6.10
2023-05-19T01:38:18.152Z,6.10
2023-05-19T01:40:46.236Z,6.00
2023-05-19T01:43:19.982Z,6.00
2023-05-19T01:45:48.247Z,6.10
2023-05-19T01:48:16.570Z,6.10
2023-05-19T01:50:46.252Z,6.10
2023-05-19T01:53:13.549Z,6.10
2023-05-19T01:55:48.036Z,6.10
2023-05-19T01:58:33.292Z,6.10
2023-05-19T02:01:20.432Z,5.90
2023-05-19T02:04:25.449Z,5.70
2023-05-19T02:07:01.209Z,5.70
2023-05-19T02:09:59.361Z,5.70
2023-05-19T02:12:33.193Z,5.60
2023-05-19T02:15:10.101Z,5.60
2023-05-19T02:17:42.242Z,5.60
2023-05-19T02:20:11.821Z,5.60
2023-05-19T02:22:39.182Z,5.60
2023-05-19T02:25:10.140Z,5.60
2023-05-19T02:27:39.384Z,5.60
2023-05-19T02:30:08.942Z,5.60
2023-05-19T02:32:37.400Z,5.50
2023-05-19T02:35:05.265Z,5.50
2023-05-19T02:37:32.557Z,5.40
2023-05-19T02:39:59.870Z,5.40
2023-05-19T02:42:27.055Z,5.40
2023-05-19T02:44:55.182Z,5.40
2023-05-19T02:47:22.489Z,5.40
2023-05-19T02:49:49.624Z,5.50
2023-05-19T02:52:16.836Z,5.50
2023-05-19T02:54:44.180Z,5.40
2023-05-19T02:57:11.384Z,5.40
2023-05-19T02:59:38.533Z,5.40
2023-05-19T03:02:05.883Z,5.30
2023-05-19T03:04:33.034Z,5.20
2023-05-19T03:07:00.265Z,5.10
2023-05-19T03:09:27.436Z,5.00
2023-05-19T03:11:54.639Z,5.00
2023-05-19T03:14:24.004Z,5.00
2023-05-19T03:16:51.597Z,5.00
2023-05-19T03:19:18.818Z,5.10
2023-05-19T03:21:46.410Z,5.10
2023-05-19T03:24:13.928Z,5.10
2023-05-19T03:26:42.124Z,5.00
2023-05-19T03:29:09.269Z,5.10
2023-05-19T03:31:37.685Z,5.00
2023-05-19T03:34:05.612Z,5.00
2023-05-19T03:36:32.937Z,5.10
2023-05-19T03:39:00.889Z,5.10
2023-05-19T03:41:28.267Z,5.10
2023-05-19T03:43:56.262Z,5.10
2023-05-19T03:46:23.561Z,5.10
2023-05-19T03:49:17.047Z,5.10
2023-05-19T03:52:03.450Z,5.10
2023-05-19T03:54:57.775Z,5.20
2023-05-19T03:57:25.077Z,5.20
2023-05-19T03:59:53.747Z,5.20
2023-05-19T04:02:21.946Z,5.20
2023-05-19T04:04:50.766Z,5.20
2023-05-19T04:07:18.112Z,5.30
2023-05-19T04:09:45.697Z,5.30
2023-05-19T04:12:12.883Z,5.40
2023-05-19T04:14:39.950Z,5.50
2023-05-19T04:17:07.404Z,5.60
2023-05-19T04:19:34.590Z,5.80
2023-05-19T04:22:02.223Z,5.90
2023-05-19T04:24:30.113Z,6.00
2023-05-19T04:26:57.426Z,6.00
2023-05-19T04:29:26.627Z,6.00
2023-05-19T04:31:53.785Z,6.00
2023-05-19T04:34:20.992Z,6.00
2023-05-19T04:36:50.956Z,6.00
2023-05-19T04:39:21.536Z,6.00
2023-05-19T04:41:48.949Z,6.00
2023-05-19T04:44:18.389Z,6.10
2023-05-19T04:46:48.022Z,6.20
2023-05-19T04:49:15.416Z,6.20
2023-05-19T04:51:42.861Z,6.30
2023-05-19T04:54:10.364Z,6.40
2023-05-19T04:56:37.920Z,6.50
2023-05-19T04:59:06.986Z,6.50
2023-05-19T05:01:34.248Z,6.60
2023-05-19T05:04:02.748Z,6.70
2023-05-19T05:06:32.962Z,6.70
2023-05-19T05:09:08.220Z,6.70
2023-05-19T05:11:36.213Z,6.80
2023-05-19T05:14:06.387Z,6.80
2023-05-19T05:16:34.268Z,6.90
2023-05-19T05:19:02.666Z,6.90
2023-05-19T05:21:33.032Z,6.90
2023-05-19T05:24:00.818Z,6.90
2023-05-19T05:26:33.655Z,6.90
2023-05-19T05:29:03.134Z,6.90
2023-05-19T05:31:31.482Z,7.00
2023-05-19T05:34:01.762Z,7.00
2023-05-19T05:36:35.108Z,7.00
2023-05-19T05:39:02.869Z,7.00
2023-05-19T05:41:35.309Z,7.10
2023-05-19T05:44:07.910Z,7.10
2023-05-19T05:46:35.315Z,7.20
2023-05-19T05:49:03.621Z,7.20
2023-05-19T05:52:09.146Z,7.30
2023-05-19T05:55:16.601Z,7.40
2023-05-19T05:57:44.748Z,7.50
2023-05-19T06:00:21.921Z,7.60
2023-05-19T06:02:53.705Z,7.70
2023-05-19T06:05:23.732Z,7.70
2023-05-19T06:07:51.059Z,7.80
2023-05-19T06:10:23.837Z,7.90
2023-05-19T06:12:51.502Z,7.90
2023-05-19T06:15:18.643Z,8.00
2023-05-19T06:18:06.431Z,8.10
2023-05-19T06:20:36.872Z,8.20
2023-05-19T06:23:04.152Z,8.20
2023-05-19T06:25:31.640Z,8.30
2023-05-19T06:30:47.468Z,8.50
2023-05-19T06:33:26.772Z,8.60
2023-05-19T06:35:58.535Z,8.80
2023-05-19T06:38:29.184Z,8.80
2023-05-19T06:41:01.735Z,8.90
2023-05-19T06:43:31.508Z,9.00
2023-05-19T06:46:15.450Z,9.10
2023-05-19T06:52:11.771Z,9.30
2023-05-19T06:54:28.656Z,9.40
2023-05-19T06:57:00.144Z,9.40
2023-05-19T06:59:45.784Z,9.50
2023-05-19T07:02:32.809Z,9.60
2023-05-19T07:05:39.259Z,9.80
2023-05-19T07:08:09.420Z,9.80
2023-05-19T07:10:37.208Z,10.00
2023-05-19T07:13:09.080Z,10.00
2023-05-19T07:15:36.860Z,10.20
2023-05-19T07:18:04.277Z,10.30
2023-05-19T07:20:31.643Z,10.50
2023-05-19T07:23:07.284Z,10.60
2023-05-19T07:26:00.585Z,10.60
2023-05-19T07:28:40.755Z,10.70
2023-05-19T07:34:25.668Z,10.80
2023-05-19T07:36:52.967Z,11.00
2023-05-19T07:39:20.242Z,11.10
2023-05-19T07:41:52.779Z,11.30
2023-05-19T07:44:20.041Z,11.40
2023-05-19T07:46:47.689Z,11.50
2023-05-19T07:49:14.867Z,11.60
2023-05-19T07:51:42.138Z,11.60
2023-05-19T07:54:15.526Z,11.70
2023-05-19T07:56:43.980Z,11.90
2023-05-19T07:59:15.563Z,12.00
2023-05-19T08:01:42.801Z,12.10
2023-05-19T08:04:12.965Z,12.30
2023-05-19T08:06:42.858Z,12.30
2023-05-19T08:09:10.656Z,12.40
2023-05-19T08:11:38.161Z,12.50
2023-05-19T08:14:05.509Z,12.50
2023-05-19T08:16:32.717Z,12.70
2023-05-19T08:19:02.790Z,12.90
2023-05-19T08:21:30.065Z,13.00
2023-05-19T08:23:57.603Z,13.10
2023-05-19T08:26:27.377Z,13.20
2023-05-19T08:28:55.901Z,13.30
2023-05-19T08:31:23.274Z,13.40
2023-05-19T08:33:57.439Z,13.50
2023-05-19T08:36:40.945Z,13.60
2023-05-19T08:39:37.295Z,13.70
2023-05-19T08:42:08.236Z,13.80
2023-05-19T08:44:49.676Z,13.90
2023-05-19T08:47:38.178Z,14.00
2023-05-19T08:50:11.953Z,14.00
2023-05-19T08:52:57.864Z,14.10
2023-05-19T08:56:01.100Z,14.20
2023-05-19T08:58:31.301Z,14.30
2023-05-19T09:01:08.859Z,14.30
2023-05-19T09:03:43.065Z,14.30
2023-05-19T09:06:14.060Z,14.40
2023-05-19T09:08:47.331Z,14.60
2023-05-19T09:11:17.416Z,14.60
2023-05-19T09:13:44.809Z,14.60
2023-05-19T09:16:15.310Z,14.80
2023-05-19T09:19:06.486Z,14.80
2023-05-19T09:21:47.263Z,14.90
2023-05-19T09:24:17.886Z,15.00
2023-05-19T09:26:51.707Z,15.10
2023-05-19T09:29:23.449Z,15.20
2023-05-19T09:31:57.172Z,15.20
2023-05-19T09:34:28.065Z,15.30
2023-05-19T09:37:00.027Z,15.50
2023-05-19T09:39:30.790Z,15.50
2023-05-19T09:41:58.955Z,15.50
2023-05-19T09:44:33.913Z,15.60
2023-05-19T09:47:16.607Z,15.50
2023-05-19T09:49:49.863Z,15.50
2023-05-19T09:52:20.815Z,15.60
2023-05-19T09:54:51.761Z,15.60
2023-05-19T09:57:37.165Z,15.60
2023-05-19T10:00:22.701Z,15.60
2023-05-19T10:02:53.020Z,15.70
2023-05-19T10:05:24.119Z,15.90
2023-05-19T10:07:55.704Z,16.00
2023-05-19T10:10:44.424Z,16.00
2023-05-19T10:13:22.416Z,16.00
2023-05-19T10:15:58.662Z,16.00
2023-05-19T10:18:32.237Z,16.00
2023-05-19T10:21:01.480Z,16.00
2023-05-19T10:23:30.175Z,16.00
2023-05-19T10:26:00.892Z,16.10
2023-05-19T10:28:42.730Z,16.30
2023-05-19T10:31:22.297Z,16.10
2023-05-19T10:34:23.157Z,15.90
2023-05-19T10:37:19.737Z,15.60
2023-05-19T10:39:56.447Z,15.80
2023-05-19T10:42:41.303Z,16.10
2023-05-19T10:45:53.091Z,16.30
2023-05-19T10:48:31.950Z,16.40
2023-05-19T10:51:12.279Z,16.50
2023-05-19T10:53:50.214Z,16.50
2023-05-19T10:56:41.415Z,16.50
2023-05-19T10:59:37.282Z,16.60
2023-05-19T11:02:09.151Z,16.60
2023-05-19T11:04:51.673Z,16.40
2023-05-19T11:07:21.887Z,16.30
2023-05-19T11:09:52.791Z,16.30
2023-05-19T11:12:28.465Z,16.40
2023-05-19T11:14:56.020Z,16.50
2023-05-19T11:17:25.809Z,16.70
2023-05-19T11:19:59.349Z,16.70
2023-05-19T11:22:29.718Z,16.90
2023-05-19T11:24:58.065Z,17.10
2023-05-19T11:27:34.460Z,17.00
2023-05-19T11:30:11.818Z,16.70
2023-05-19T11:32:44.655Z,16.50
2023-05-19T11:35:15.722Z,16.40
2023-05-19T11:37:43.150Z,16.70
2023-05-19T11:40:12.468Z,16.90
2023-05-19T11:42:39.749Z,17.00
2023-05-19T11:45:08.332Z,17.20
2023-05-19T11:47:51.741Z,17.00
2023-05-19T11:50:26.714Z,16.70
2023-05-19T11:52:54.979Z,16.80
2023-05-19T11:55:24.624Z,17.10
2023-05-19T11:58:08.032Z,17.40
2023-05-19T12:00:39.664Z,17.40
2023-05-19T12:03:10.185Z,17.20
2023-05-19T12:05:54.735Z,17.30
2023-05-19T12:08:29.241Z,17.10
2023-05-19T12:10:57.363Z,17.40
2023-05-19T12:13:25.657Z,17.50
2023-05-19T12:16:11.150Z,17.50
2023-05-19T12:18:41.072Z,17.70
2023-05-19T12:21:11.371Z,17.60
2023-05-19T12:23:41.651Z,17.30
2023-05-19T12:26:12.418Z,17.50
2023-05-19T12:28:41.855Z,17.60
2023-05-19T12:31:09.328Z,17.70
2023-05-19T12:33:39.671Z,17.90
2023-05-19T12:36:12.891Z,18.10
2023-05-19T12:38:42.345Z,17.90
2023-05-19T12:41:15.246Z,18.00
2023-05-19T12:43:51.002Z,18.10
2023-05-19T12:46:20.043Z,18.10
2023-05-19T12:48:47.888Z,18.00
2023-05-19T12:51:21.833Z,18.20
2023-05-19T12:53:50.770Z,18.10
2023-05-19T12:56:17.989Z,18.30
2023-05-19T12:58:46.047Z,18.30
2023-05-19T13:01:19.497Z,18.10
2023-05-19T13:03:47.154Z,18.20
2023-05-19T13:06:14.702Z,18.10
2023-05-19T13:08:42.045Z,18.30
2023-05-19T13:11:09.183Z,18.40
2023-05-19T13:13:36.356Z,18.10
2023-05-19T13:16:03.501Z,18.20
2023-05-19T13:18:32.529Z,18.30
2023-05-19T13:20:59.708Z,18.30
2023-05-19T13:23:27.088Z,18.40
2023-05-19T13:25:54.262Z,18.50
2023-05-19T13:28:21.470Z,18.70
2023-05-19T13:30:49.649Z,18.80
2023-05-19T13:33:17.264Z,18.80
2023-05-19T13:35:44.488Z,18.60
2023-05-19T13:38:11.712Z,18.40
2023-05-19T13:40:40.099Z,18.40
2023-05-19T13:43:08.656Z,18.40
2023-05-19T13:45:36.095Z,18.40
2023-05-19T13:48:03.399Z,18.50
2023-05-19T13:50:30.670Z,18.80
2023-05-19T13:52:57.814Z,19.10
2023-05-19T13:55:27.183Z,19.30
2023-05-19T13:57:54.561Z,19.40
2023-05-19T14:00:21.818Z,19.20
2023-05-19T14:02:49.139Z,19.00
2023-05-19T14:05:16.390Z,19.10
2023-05-19T14:07:44.567Z,19.30
2023-05-19T14:10:12.148Z,19.50
2023-05-19T14:12:49.420Z,19.60
2023-05-19T14:15:26.978Z,19.50
2023-05-19T14:17:54.308Z,19.30
2023-05-19T14:20:21.836Z,19.10
2023-05-19T14:22:49.008Z,19.20
2023-05-19T14:25:16.236Z,19.20
2023-05-19T14:27:43.345Z,19.20
2023-05-19T14:30:11.122Z,19.40
2023-05-19T14:32:38.246Z,19.50
2023-05-19T14:35:06.378Z,19.50
2023-05-19T14:37:33.452Z,19.60
2023-05-19T14:40:00.771Z,19.80
2023-05-19T14:42:27.847Z,20.10
2023-05-19T14:44:55.039Z,20.20
2023-05-19T14:47:22.163Z,20.40
2023-05-19T14:49:49.497Z,20.70
2023-05-19T14:52:17.841Z,20.70
2023-05-19T14:54:45.040Z,20.30
2023-05-19T14:57:12.233Z,19.90
2023-05-19T14:59:39.549Z,19.70
2023-05-19T15:02:07.348Z,20.30
2023-05-19T15:04:34.487Z,20.90
2023-05-19T15:09:31.813Z,21.60
2023-05-19T15:12:01.157Z,21.90
2023-05-19T15:14:30.565Z,21.90
2023-05-19T15:16:58.706Z,21.90
2023-05-19T15:19:26.168Z,21.60
2023-05-19T15:21:53.688Z,21.50
2023-05-19T15:24:20.798Z,21.80
2023-05-19T15:26:48.179Z,21.80
2023-05-19T15:29:15.384Z,22.00
2023-05-19T15:31:42.608Z,22.30
2023-05-19T15:34:09.730Z,22.80
2023-05-19T15:36:36.897Z,23.00
2023-05-19T15:39:04.070Z,22.60
2023-05-19T15:41:31.235Z,22.00
2023-05-19T15:44:00.453Z,21.80
2023-05-19T15:46:28.741Z,21.50
2023-05-19T15:48:55.888Z,21.90
2023-05-19T15:51:23.730Z,22.70
2023-05-19T15:53:50.895Z,23.00
2023-05-19T15:56:19.439Z,23.20
2023-05-19T15:58:46.552Z,22.90
2023-05-19T16:01:15.197Z,22.70
2023-05-19T16:03:42.596Z,22.50
2023-05-19T16:06:09.934Z,22.20
2023-05-19T16:08:38.009Z,22.50
2023-05-19T16:11:05.646Z,23.10
2023-05-19T16:13:33.891Z,23.30
2023-05-19T16:16:01.389Z,23.20
2023-05-19T16:18:31.238Z,22.80
2023-05-19T16:20:58.447Z,22.60
2023-05-19T16:23:25.685Z,22.60
2023-05-19T16:25:54.671Z,22.80
2023-05-19T16:28:23.245Z,23.10
2023-05-19T16:30:51.927Z,22.60
2023-05-19T16:33:19.214Z,22.70
2023-05-19T16:35:46.467Z,23.20
2023-05-19T16:38:13.602Z,23.20
2023-05-19T16:40:40.824Z,23.10
2023-05-19T16:43:07.960Z,22.80
2023-05-19T16:45:35.115Z,22.90
2023-05-19T16:48:02.482Z,23.00
2023-05-19T16:50:29.845Z,22.80
2023-05-19T16:52:56.959Z,23.00
2023-05-19T16:55:25.377Z,22.90
2023-05-19T16:57:52.557Z,22.80
2023-05-19T17:00:19.964Z,22.50
2023-05-19T17:02:47.200Z,21.80
2023-05-19T17:05:14.419Z,22.00
2023-05-19T17:07:41.648Z,21.80
2023-05-19T17:10:09.580Z,20.80
2023-05-19T17:12:36.955Z,20.30
2023-05-19T17:15:04.568Z,19.90
2023-05-19T17:17:31.737Z,19.80
2023-05-19T17:19:58.890Z,19.60
2023-05-19T17:22:27.376Z,19.40
2023-05-19T17:24:55.459Z,19.20
2023-05-19T17:27:23.723Z,19.00
2023-05-19T17:29:50.846Z,19.00
2023-05-19T17:32:18.004Z,19.10
2023-05-19T17:34:45.251Z,19.10
2023-05-19T17:37:16.462Z,19.10
2023-05-19T17:39:43.593Z,18.90
2023-05-19T17:42:11.104Z,18.90
2023-05-19T17:44:38.257Z,18.80
2023-05-19T17:47:07.248Z,18.80
2023-05-19T17:49:34.678Z,18.60
2023-05-19T17:52:02.299Z,18.50
2023-05-19T17:54:29.936Z,18.50
2023-05-19T17:57:01.713Z,18.40
2023-05-19T17:59:30.235Z,18.50
2023-05-19T18:01:57.785Z,18.40
2023-05-19T18:04:25.540Z,18.40
2023-05-19T18:06:53.330Z,18.30
2023-05-19T18:09:23.507Z,18.20
2023-05-19T18:11:50.764Z,18.10
2023-05-19T18:14:18.201Z,18.10
2023-05-19T18:16:45.510Z,18.10
2023-05-19T18:19:12.784Z,18.00
2023-05-19T18:21:39.986Z,17.90
2023-05-19T18:24:07.271Z,17.80
2023-05-19T18:26:34.395Z,17.80
2023-05-19T18:29:04.845Z,17.90
2023-05-19T18:31:32.155Z,17.70
2023-05-19T18:33:59.409Z,17.50
2023-05-19T18:36:26.735Z,17.30
2023-05-19T18:38:55.144Z,17.20
2023-05-19T18:41:22.425Z,17.20
2023-05-19T18:43:49.673Z,17.20
2023-05-19T18:46:20.950Z,17.10
2023-05-19T18:48:50.596Z,17.10
2023-05-19T18:51:19.858Z,17.00
2023-05-19T18:53:49.438Z,16.90
2023-05-19T18:56:27.191Z,16.80
2023-05-19T18:58:55.077Z,16.80
2023-05-19T19:01:24.854Z,16.80
2023-05-19T19:03:54.548Z,16.80
2023-05-19T19:06:24.897Z,16.70
2023-05-19T19:08:52.910Z,16.60
2023-05-19T19:11:21.763Z,16.50
2023-05-19T19:13:55.583Z,16.40
2023-05-19T19:16:25.701Z,16.30
2023-05-19T19:18:53.139Z,16.20
2023-05-19T19:21:22.926Z,16.10
2023-05-19T19:23:54.991Z,16.00
2023-05-19T19:26:33.202Z,16.00
2023-05-19T19:29:00.585Z,15.90
2023-05-19T19:31:33.465Z,15.70
2023-05-19T19:34:09.229Z,15.70
2023-05-19T19:36:40.353Z,15.70
2023-05-19T19:39:08.349Z,15.50
2023-05-19T19:41:37.864Z,15.50
2023-05-19T19:44:05.446Z,15.40
2023-05-19T19:46:40.025Z,15.30
2023-05-19T19:49:08.626Z,15.20
2023-05-19T19:51:37.227Z,15.10
2023-05-19T19:54:09.405Z,15.00
2023-05-19T19:56:42.367Z,15.00
2023-05-19T19:59:14.425Z,14.90
2023-05-19T20:01:44.604Z,14.80
2023-05-19T20:04:13.502Z,14.80
2023-05-19T20:06:48.076Z,14.80
2023-05-19T20:09:31.908Z,14.80
2023-05-19T20:12:10.338Z,14.80
2023-05-19T20:14:38.918Z,14.80
2023-05-19T20:17:06.281Z,14.70
2023-05-19T20:19:38.650Z,14.60
2023-05-19T20:22:05.983Z,14.50
2023-05-19T20:24:38.149Z,14.40
2023-05-19T20:27:09.499Z,14.40
2023-05-19T20:29:36.839Z,14.40
2023-05-19T20:32:04.270Z,14.30
2023-05-19T20:34:34.186Z,14.30
2023-05-19T20:37:01.800Z,14.30
2023-05-19T20:39:29.189Z,14.20
2023-05-19T20:41:56.600Z,14.20
2023-05-19T20:44:24.082Z,14.20
2023-05-19T20:46:51.562Z,14.20
2023-05-19T20:49:23.668Z,14.10
2023-05-19T20:51:51.032Z,14.00
2023-05-19T20:54:22.739Z,14.10
2023-05-19T20:56:52.069Z,14.10
2023-05-19T20:59:19.327Z,14.00
2023-05-19T21:01:48.397Z,14.00
2023-05-19T21:04:15.802Z,13.90
2023-05-19T21:06:49.287Z,13.90
2023-05-19T21:09:19.012Z,13.90
2023-05-19T21:11:53.340Z,13.90
2023-05-19T21:14:21.989Z,13.90
2023-05-19T21:16:55.731Z,13.90
2023-05-19T21:19:28.420Z,13.90
2023-05-19T21:21:58.135Z,13.90
2023-05-19T21:24:25.662Z,13.80
2023-05-19T21:26:55.115Z,13.80
2023-05-19T21:29:26.093Z,13.70
2023-05-19T21:31:57.732Z,13.70
2023-05-19T21:34:38.569Z,13.70
2023-05-19T21:37:23.044Z,13.70
2023-05-19T21:39:52.934Z,13.60
2023-05-19T21:42:25.216Z,13.50
2023-05-19T21:45:03.917Z,13.40
2023-05-19T21:47:41.113Z,13.40
2023-05-19T21:50:15.641Z,13.40
2023-05-19T21:52:43.148Z,13.20
2023-05-19T21:55:10.842Z,13.20
2023-05-19T21:57:54.684Z,13.10
2023-05-19T22:00:25.757Z,13.20
2023-05-19T22:03:22.174Z,13.10
2023-05-19T22:06:00.415Z,13.10
2023-05-19T22:08:45.443Z,13.00
2023-05-19T22:11:21.467Z,13.00
2023-05-19T22:13:57.574Z,13.00
2023-05-19T22:16:26.045Z,13.00
2023-05-19T22:19:16.158Z,13.00
2023-05-19T22:21:45.925Z,13.00
2023-05-19T22:24:25.268Z,13.00
2023-05-19T22:26:55.190Z,12.90
2023-05-19T22:29:36.054Z,12.90
2023-05-19T22:32:27.027Z,12.80
2023-05-19T22:35:17.487Z,12.70
2023-05-19T22:37:57.913Z,12.70
2023-05-19T22:40:25.431Z,12.60
2023-05-19T22:42:57.004Z,12.60
2023-05-19T22:45:26.793Z,12.50
2023-05-19T22:48:09.915Z,12.50
2023-05-19T22:50:46.409Z,12.50
2023-05-19T22:53:22.963Z,12.50
2023-05-19T22:56:03.290Z,12.40
2023-05-19T22:58:34.094Z,12.40
2023-05-19T23:01:04.622Z,12.40
2023-05-19T23:03:36.230Z,12.30
2023-05-19T23:06:20.988Z,12.20
2023-05-19T23:09:10.765Z,12.20
2023-05-19T23:11:52.106Z,12.20
2023-05-19T23:14:32.973Z,12.20
2023-05-19T23:17:03.283Z,12.10
2023-05-19T23:19:43.542Z,12.10
2023-05-19T23:22:27.443Z,12.10
2023-05-19T23:25:03.522Z,12.00
2023-05-19T23:27:34.388Z,12.00
2023-05-19T23:30:33.126Z,12.00
2023-05-19T23:33:10.216Z,12.00
2023-05-19T23:35:44.439Z,12.00
2023-05-19T23:38:15.699Z,12.00
2023-05-19T23:40:51.585Z,11.90
2023-05-19T23:43:29.025Z,11.80
2023-05-19T23:46:01.941Z,11.80
2023-05-19T23:48:43.666Z,11.80
2023-05-19T23:51:24.186Z,11.80
2023-05-19T23:53:52.829Z,11.90
2023-05-19T23:56:31.252Z,11.80
2023-05-19T23:59:13.529Z,11.80
